F\v Desperado — FVFQ — position and weather

sailwx.info

Track history (hours):
 
Tides and Currents Weather Stations Pressure Air Temp Water Temp Dewpoint Dewpoint Depression Visibility Wind Speed Wind Dir Waves Ship Positions

F\v Desperado

Last reported at 2016-Sep-30 03:20 UTC. Time now 2016-Sep-30 11:45 UTC.
Position N 47°29' W 003°56'.

Type: Fishing. MMSI: 228312000.

Date/timePositionNaut miles runAvg speedWind from/ knotsBaromVisibWave heightAir tempDewpointWater temp
2016-Sep-30 03:20N 47°29' W 003°56'11 1.9
2016-Sep-29 21:32N 47°40' W 003°54'15 7.3
2016-Sep-29 19:25N 47°24' W 003°56'13 1.2
2016-Sep-29 08:33N 47°12' W 004°04'4 3.5
2016-Sep-29 07:23N 47°12' W 003°58'1 0.2
2016-Sep-29 00:31N 47°13' W 003°60'1 0.2
2016-Sep-28 21:30N 47°13' W 003°59'1 0.4
2016-Sep-28 19:28N 47°13' W 004°00'3 1.0
2016-Sep-28 16:31N 47°11' W 003°57'3 3.3
2016-Sep-28 15:32N 47°09' W 003°53'6 1.9
2016-Sep-28 12:32N 47°13' W 003°57'21 2.4
2016-Sep-28 03:33N 47°35' W 003°55'10 8.2
2016-Sep-28 02:19N 47°45' W 003°55'  
2016-Sep-24 01:30N 47°53' W 003°55'4 4.3
2016-Sep-24 00:33N 47°49' W 003°56'29 1.4
2016-Sep-23 04:15N 47°20' W 003°55'7 8.2
2016-Sep-23 03:22N 47°27' W 003°54'7 8.1
2016-Sep-23 02:33N 47°33' W 003°54'5 0.8
2016-Sep-22 20:26N 47°28' W 003°54'4 0.1
2016-Sep-20 17:33N 47°32' W 003°51'4 1.2
2016-Sep-20 14:22N 47°33' W 003°57'1 0.1
2016-Sep-20 10:05N 47°33' W 003°56'3 1.9
2016-Sep-20 08:33N 47°33' W 003°52'0 0.3
2016-Sep-20 07:29N 47°33' W 003°52'0 0.3
2016-Sep-20 06:30N 47°33' W 003°52'  
Track history (hours):
 
Tides and Currents Weather Stations Pressure Air Temp Water Temp Dewpoint Dewpoint Depression Visibility Wind Speed Wind Dir Waves Ship Positions

F\v Desperado

Last reported at 2016-Sep-30 03:20 UTC. Time now 2016-Sep-30 11:45 UTC.
Position N 47°29' W 003°56'.

Type: Fishing. MMSI: 228312000.

Date/timePositionNaut miles runAvg speedWind from/ knotsBaromVisibWave heightAir tempDewpointWater temp
2016-Sep-30 03:20N 47°29' W 003°56'11 1.9
2016-Sep-29 21:32N 47°40' W 003°54'15 7.3
2016-Sep-29 19:25N 47°24' W 003°56'13 1.2
2016-Sep-29 08:33N 47°12' W 004°04'4 3.5
2016-Sep-29 07:23N 47°12' W 003°58'1 0.2
2016-Sep-29 00:31N 47°13' W 003°60'1 0.2
2016-Sep-28 21:30N 47°13' W 003°59'1 0.4
2016-Sep-28 19:28N 47°13' W 004°00'3 1.0
2016-Sep-28 16:31N 47°11' W 003°57'3 3.3
2016-Sep-28 15:32N 47°09' W 003°53'6 1.9
2016-Sep-28 12:32N 47°13' W 003°57'21 2.4
2016-Sep-28 03:33N 47°35' W 003°55'10 8.2
2016-Sep-28 02:19N 47°45' W 003°55'  
2016-Sep-24 01:30N 47°53' W 003°55'4 4.3
2016-Sep-24 00:33N 47°49' W 003°56'29 1.4
2016-Sep-23 04:15N 47°20' W 003°55'7 8.2
2016-Sep-23 03:22N 47°27' W 003°54'7 8.1
2016-Sep-23 02:33N 47°33' W 003°54'5 0.8
2016-Sep-22 20:26N 47°28' W 003°54'4 0.1
2016-Sep-20 17:33N 47°32' W 003°51'4 1.2
2016-Sep-20 14:22N 47°33' W 003°57'1 0.1
2016-Sep-20 10:05N 47°33' W 003°56'3 1.9
2016-Sep-20 08:33N 47°33' W 003°52'0 0.3
2016-Sep-20 07:29N 47°33' W 003°52'0 0.3
2016-Sep-20 06:30N 47°33' W 003°52'  

Dump ship's entire track history